sensor_id;sensor_type;location;lat;lon;timestamp;pressure;altitude;pressure_sealevel;temperature
6550;BMP280;15142;48.888;9.134;2022-11-20T00:01:29;97618.88;;;4.96
6550;BMP280;15142;48.888;9.134;2022-11-20T00:03:58;97618.88;;;4.96
6550;BMP280;15142;48.888;9.134;2022-11-20T00:06:26;97619.16;;;4.99
6550;BMP280;15142;48.888;9.134;2022-11-20T00:08:55;97626.72;;;4.94
6550;BMP280;15142;48.888;9.134;2022-11-20T00:11:24;97620.41;;;4.97
6550;BMP280;15142;48.888;9.134;2022-11-20T00:13:52;97620.16;;;4.98
6550;BMP280;15142;48.888;9.134;2022-11-20T00:16:20;97614.94;;;5.05
6550;BMP280;15142;48.888;9.134;2022-11-20T00:18:47;97627.13;;;5.17
6550;BMP280;15142;48.888;9.134;2022-11-20T00:21:17;97618.53;;;5.18
6550;BMP280;15142;48.888;9.134;2022-11-20T00:23:44;97625.88;;;5.20
6550;BMP280;15142;48.888;9.134;2022-11-20T00:26:13;97624.06;;;5.15
6550;BMP280;15142;48.888;9.134;2022-11-20T00:28:41;97625.13;;;5.19
6550;BMP280;15142;48.888;9.134;2022-11-20T00:31:09;97622.38;;;5.26
6550;BMP280;15142;48.888;9.134;2022-11-20T00:33:37;97618.38;;;5.35
6550;BMP280;15142;48.888;9.134;2022-11-20T00:36:05;97616.03;;;5.28
6550;BMP280;15142;48.888;9.134;2022-11-20T00:38:34;97623.63;;;5.23
6550;BMP280;15142;48.888;9.134;2022-11-20T00:41:02;97626.63;;;5.20
6550;BMP280;15142;48.888;9.134;2022-11-20T00:43:30;97623.13;;;5.21
6550;BMP280;15142;48.888;9.134;2022-11-20T00:45:57;97613.00;;;5.21
6550;BMP280;15142;48.888;9.134;2022-11-20T00:48:24;97624.16;;;5.25
6550;BMP280;15142;48.888;9.134;2022-11-20T00:50:50;97615.56;;;5.26
6550;BMP280;15142;48.888;9.134;2022-11-20T00:53:17;97626.63;;;5.20
6550;BMP280;15142;48.888;9.134;2022-11-20T00:55:54;97616.72;;;5.14
6550;BMP280;15142;48.888;9.134;2022-11-20T00:58:20;97629.41;;;5.19
6550;BMP280;15142;48.888;9.134;2022-11-20T01:00:47;97620.00;;;5.14
6550;BMP280;15142;48.888;9.134;2022-11-20T01:03:14;97621.53;;;5.15
6550;BMP280;15142;48.888;9.134;2022-11-20T01:05:41;97622.06;;;5.17
6550;BMP280;15142;48.888;9.134;2022-11-20T01:08:08;97619.00;;;5.15
6550;BMP280;15142;48.888;9.134;2022-11-20T01:10:35;97628.91;;;5.17
6550;BMP280;15142;48.888;9.134;2022-11-20T01:13:02;97629.59;;;5.12
6550;BMP280;15142;48.888;9.134;2022-11-20T01:16:02;97622.31;;;5.11
6550;BMP280;15142;48.888;9.134;2022-11-20T01:18:29;97631.13;;;5.13
6550;BMP280;15142;48.888;9.134;2022-11-20T01:21:00;97630.13;;;5.14
6550;BMP280;15142;48.888;9.134;2022-11-20T01:23:30;97633.16;;;5.16
6550;BMP280;15142;48.888;9.134;2022-11-20T01:25:59;97637.72;;;5.14
6550;BMP280;15142;48.888;9.134;2022-11-20T01:28:28;97634.19;;;5.15
6550;BMP280;15142;48.888;9.134;2022-11-20T01:30:55;97638.22;;;5.16
6550;BMP280;15142;48.888;9.134;2022-11-20T01:33:22;97636.94;;;5.14
6550;BMP280;15142;48.888;9.134;2022-11-20T01:35:48;97634.66;;;5.12
6550;BMP280;15142;48.888;9.134;2022-11-20T01:38:15;97629.09;;;5.11
6550;BMP280;15142;48.888;9.134;2022-11-20T01:40:42;97631.59;;;5.06
6550;BMP280;15142;48.888;9.134;2022-11-20T01:43:12;97627.56;;;5.05
6550;BMP280;15142;48.888;9.134;2022-11-20T01:46:00;97629.59;;;5.08
6550;BMP280;15142;48.888;9.134;2022-11-20T01:48:31;97628.09;;;5.12
6550;BMP280;15142;48.888;9.134;2022-11-20T01:50:59;97628.84;;;5.07
6550;BMP280;15142;48.888;9.134;2022-11-20T01:53:30;97637.47;;;5.11
6550;BMP280;15142;48.888;9.134;2022-11-20T01:56:00;97624.31;;;5.09
6550;BMP280;15142;48.888;9.134;2022-11-20T01:58:31;97630.09;;;5.05
6550;BMP280;15142;48.888;9.134;2022-11-20T02:01:00;97632.34;;;5.06
6550;BMP280;15142;48.888;9.134;2022-11-20T02:03:27;97631.13;;;5.09
6550;BMP280;15142;48.888;9.134;2022-11-20T02:05:56;97636.44;;;5.12
6550;BMP280;15142;48.888;9.134;2022-11-20T02:08:24;97637.53;;;5.21
6550;BMP280;15142;48.888;9.134;2022-11-20T02:10:51;97632.47;;;5.21
6550;BMP280;15142;48.888;9.134;2022-11-20T02:13:18;97641.34;;;5.28
6550;BMP280;15142;48.888;9.134;2022-11-20T02:16:04;97626.22;;;5.33
6550;BMP280;15142;48.888;9.134;2022-11-20T02:18:35;97626.22;;;5.38
6550;BMP280;15142;48.888;9.134;2022-11-20T02:21:06;97621.97;;;5.39
6550;BMP280;15142;48.888;9.134;2022-11-20T02:23:38;97620.94;;;5.40
6550;BMP280;15142;48.888;9.134;2022-11-20T02:26:11;97620.69;;;5.46
6550;BMP280;15142;48.888;9.134;2022-11-20T02:28:39;97625.03;;;5.50
6550;BMP280;15142;48.888;9.134;2022-11-20T02:31:06;97620.69;;;5.46
6550;BMP280;15142;48.888;9.134;2022-11-20T02:33:33;97619.25;;;5.55
6550;BMP280;15142;48.888;9.134;2022-11-20T02:35:59;97621.25;;;5.53
6550;BMP280;15142;48.888;9.134;2022-11-20T02:38:26;97623.53;;;5.54
6550;BMP280;15142;48.888;9.134;2022-11-20T02:40:53;97625.31;;;5.54
6550;BMP280;15142;48.888;9.134;2022-11-20T02:43:21;97624.84;;;5.57
6550;BMP280;15142;48.888;9.134;2022-11-20T02:45:48;97624.59;;;5.63
6550;BMP280;15142;48.888;9.134;2022-11-20T02:48:14;97629.66;;;5.68
6550;BMP280;15142;48.888;9.134;2022-11-20T02:50:41;97629.91;;;5.72
6550;BMP280;15142;48.888;9.134;2022-11-20T02:53:08;97622.59;;;5.75
6550;BMP280;15142;48.888;9.134;2022-11-20T02:55:35;97618.31;;;5.76
6550;BMP280;15142;48.888;9.134;2022-11-20T02:58:01;97616.53;;;5.76
6550;BMP280;15142;48.888;9.134;2022-11-20T03:00:29;97619.84;;;5.77
6550;BMP280;15142;48.888;9.134;2022-11-20T03:02:57;97614.50;;;5.78
6550;BMP280;15142;48.888;9.134;2022-11-20T03:05:23;97620.88;;;5.80
6550;BMP280;15142;48.888;9.134;2022-11-20T03:07:50;97611.50;;;5.86
6550;BMP280;15142;48.888;9.134;2022-11-20T03:10:16;97601.63;;;5.89
6550;BMP280;15142;48.888;9.134;2022-11-20T03:12:43;97609.75;;;5.91
6550;BMP280;15142;48.888;9.134;2022-11-20T03:15:10;97608.72;;;5.92
6550;BMP280;15142;48.888;9.134;2022-11-20T03:17:38;97602.41;;;5.90
6550;BMP280;15142;48.888;9.134;2022-11-20T03:20:06;97608.72;;;5.87
6550;BMP280;15142;48.888;9.134;2022-11-20T03:22:34;97600.34;;;5.82
6550;BMP280;15142;48.888;9.134;2022-11-20T03:25:00;97594.53;;;5.81
6550;BMP280;15142;48.888;9.134;2022-11-20T03:27:32;97589.19;;;5.78
6550;BMP280;15142;48.888;9.134;2022-11-20T03:29:58;97595.28;;;5.77
6550;BMP280;15142;48.888;9.134;2022-11-20T03:32:25;97586.94;;;5.77
6550;BMP280;15142;48.888;9.134;2022-11-20T03:34:53;97585.41;;;5.76
6550;BMP280;15142;48.888;9.134;2022-11-20T03:37:19;97587.41;;;5.74
6550;BMP280;15142;48.888;9.134;2022-11-20T03:39:46;97587.41;;;5.74
6550;BMP280;15142;48.888;9.134;2022-11-20T03:42:12;97585.41;;;5.76
6550;BMP280;15142;48.888;9.134;2022-11-20T03:44:53;97587.16;;;5.75
6550;BMP280;15142;48.888;9.134;2022-11-20T03:47:19;97584.88;;;5.74
6550;BMP280;15142;48.888;9.134;2022-11-20T03:49:46;97599.56;;;5.72
6550;BMP280;15142;48.888;9.134;2022-11-20T03:52:14;97587.41;;;5.74
6550;BMP280;15142;48.888;9.134;2022-11-20T03:54:40;97591.47;;;5.75
6550;BMP280;15142;48.888;9.134;2022-11-20T03:57:07;97586.44;;;5.79
6550;BMP280;15142;48.888;9.134;2022-11-20T03:59:34;97589.47;;;5.81
6550;BMP280;15142;48.888;9.134;2022-11-20T04:02:00;97594.53;;;5.81
6550;BMP280;15142;48.888;9.134;2022-11-20T04:04:27;97591.50;;;5.79
6550;BMP280;15142;48.888;9.134;2022-11-20T04:06:53;97588.44;;;5.78
6550;BMP280;15142;48.888;9.134;2022-11-20T04:09:21;97584.38;;;5.72
6550;BMP280;15142;48.888;9.134;2022-11-20T04:11:48;97585.66;;;5.69
6550;BMP280;15142;48.888;9.134;2022-11-20T04:14:15;97586.63;;;5.63
6550;BMP280;15142;48.888;9.134;2022-11-20T04:16:43;97587.88;;;5.61
6550;BMP280;15142;48.888;9.134;2022-11-20T04:19:12;97588.63;;;5.61
6550;BMP280;15142;48.888;9.134;2022-11-20T04:21:39;97586.13;;;5.61
6550;BMP280;15142;48.888;9.134;2022-11-20T04:24:07;97594.47;;;5.62
6550;BMP280;15142;48.888;9.134;2022-11-20T04:26:35;97582.81;;;5.61
6550;BMP280;15142;48.888;9.134;2022-11-20T04:29:02;97586.59;;;5.53
6550;BMP280;15142;48.888;9.134;2022-11-20T04:31:30;97585.06;;;5.52
6550;BMP280;15142;48.888;9.134;2022-11-20T04:33:59;97583.31;;;5.53
6550;BMP280;15142;48.888;9.134;2022-11-20T04:36:27;97583.53;;;5.51
6550;BMP280;15142;48.888;9.134;2022-11-20T04:38:55;97585.56;;;5.49
6550;BMP280;15142;48.888;9.134;2022-11-20T04:41:24;97581.53;;;5.53
6550;BMP280;15142;48.888;9.134;2022-11-20T04:43:54;97585.84;;;5.53
6550;BMP280;15142;48.888;9.134;2022-11-20T04:46:25;97580.00;;;5.52
6550;BMP280;15142;48.888;9.134;2022-11-20T04:48:52;97582.28;;;5.54
6550;BMP280;15142;48.888;9.134;2022-11-20T04:51:18;97583.84;;;5.55
6550;BMP280;15142;48.888;9.134;2022-11-20T04:53:45;97583.53;;;5.51
6550;BMP280;15142;48.888;9.134;2022-11-20T04:56:12;97576.47;;;5.53
6550;BMP280;15142;48.888;9.134;2022-11-20T04:58:39;97582.28;;;5.54
6550;BMP280;15142;48.888;9.134;2022-11-20T05:01:10;97584.81;;;5.54
6550;BMP280;15142;48.888;9.134;2022-11-20T05:03:37;97582.81;;;5.56
6550;BMP280;15142;48.888;9.134;2022-11-20T05:06:05;97580.28;;;5.56
6550;BMP280;15142;48.888;9.134;2022-11-20T05:08:32;97583.28;;;5.58
6550;BMP280;15142;48.888;9.134;2022-11-20T05:11:00;97573.47;;;5.61
6550;BMP280;15142;48.888;9.134;2022-11-20T05:13:27;97576.47;;;5.58
6550;BMP280;15142;48.888;9.134;2022-11-20T05:15:54;97577.25;;;5.59
6550;BMP280;15142;48.888;9.134;2022-11-20T05:18:22;97578.78;;;5.55
6550;BMP280;15142;48.888;9.134;2022-11-20T05:20:54;97576.75;;;5.57
6550;BMP280;15142;48.888;9.134;2022-11-20T05:23:21;97580.28;;;5.56
6550;BMP280;15142;48.888;9.134;2022-11-20T05:25:47;97580.53;;;5.59
6550;BMP280;15142;48.888;9.134;2022-11-20T05:28:14;97587.88;;;5.61
6550;BMP280;15142;48.888;9.134;2022-11-20T05:30:41;97588.91;;;5.65
6550;BMP280;15142;48.888;9.134;2022-11-20T05:33:07;97576.78;;;5.67
6550;BMP280;15142;48.888;9.134;2022-11-20T05:35:35;97579.56;;;5.65
6550;BMP280;15142;48.888;9.134;2022-11-20T05:38:02;97571.47;;;5.68
6550;BMP280;15142;48.888;9.134;2022-11-20T05:40:28;97576.28;;;5.70
6550;BMP280;15142;48.888;9.134;2022-11-20T05:42:55;97582.09;;;5.70
6550;BMP280;15142;48.888;9.134;2022-11-20T05:45:22;97572.47;;;5.72
6550;BMP280;15142;48.888;9.134;2022-11-20T05:47:48;97568.69;;;5.75
6550;BMP280;15142;48.888;9.134;2022-11-20T05:50:15;97577.06;;;5.75
6550;BMP280;15142;48.888;9.134;2022-11-20T05:52:43;97574.78;;;5.78
6550;BMP280;15142;48.888;9.134;2022-11-20T05:55:10;97568.94;;;5.78
6550;BMP280;15142;48.888;9.134;2022-11-20T05:57:36;97566.94;;;5.80
6550;BMP280;15142;48.888;9.134;2022-11-20T06:00:04;97569.00;;;5.83
6550;BMP280;15142;48.888;9.134;2022-11-20T06:02:34;97570.97;;;5.86
6550;BMP280;15142;48.888;9.134;2022-11-20T06:05:01;97566.69;;;5.86
6550;BMP280;15142;48.888;9.134;2022-11-20T06:07:27;97569.75;;;5.88
6550;BMP280;15142;48.888;9.134;2022-11-20T06:09:55;97565.16;;;5.90
6550;BMP280;15142;48.888;9.134;2022-11-20T06:12:22;97559.13;;;5.91
6550;BMP280;15142;48.888;9.134;2022-11-20T06:14:48;97567.47;;;5.92
6550;BMP280;15142;48.888;9.134;2022-11-20T06:17:15;97569.25;;;5.91
6550;BMP280;15142;48.888;9.134;2022-11-20T06:19:41;97565.44;;;5.94
6550;BMP280;15142;48.888;9.134;2022-11-20T06:22:08;97566.72;;;5.96
6550;BMP280;15142;48.888;9.134;2022-11-20T06:24:34;97573.31;;;5.97
6550;BMP280;15142;48.888;9.134;2022-11-20T06:27:02;97564.69;;;5.98
6550;BMP280;15142;48.888;9.134;2022-11-20T06:29:29;97568.25;;;5.97
6550;BMP280;15142;48.888;9.134;2022-11-20T06:31:56;97562.97;;;5.99
6550;BMP280;15142;48.888;9.134;2022-11-20T06:34:22;97562.66;;;6.00
6550;BMP280;15142;48.888;9.134;2022-11-20T06:36:49;97565.69;;;6.02
6550;BMP280;15142;48.888;9.134;2022-11-20T06:39:15;97561.66;;;6.06
6550;BMP280;15142;48.888;9.134;2022-11-20T06:41:42;97564.19;;;6.06
6550;BMP280;15142;48.888;9.134;2022-11-20T06:44:10;97572.31;;;6.03
6550;BMP280;15142;48.888;9.134;2022-11-20T06:46:36;97561.16;;;6.04
6550;BMP280;15142;48.888;9.134;2022-11-20T06:49:03;97563.16;;;6.02
6550;BMP280;15142;48.888;9.134;2022-11-20T06:51:30;97573.06;;;6.04
6550;BMP280;15142;48.888;9.134;2022-11-20T06:53:56;97576.09;;;6.06
6550;BMP280;15142;48.888;9.134;2022-11-20T06:56:23;97570.81;;;6.07
6550;BMP280;15142;48.888;9.134;2022-11-20T06:58:49;97576.38;;;6.09
6550;BMP280;15142;48.888;9.134;2022-11-20T07:01:17;97574.34;;;6.11
6550;BMP280;15142;48.888;9.134;2022-11-20T07:03:44;97571.31;;;6.09
6550;BMP280;15142;48.888;9.134;2022-11-20T07:06:10;97579.44;;;6.11
6550;BMP280;15142;48.888;9.134;2022-11-20T07:08:37;97574.84;;;6.13
6550;BMP280;15142;48.888;9.134;2022-11-20T07:11:05;97576.13;;;6.15
6550;BMP280;15142;48.888;9.134;2022-11-20T07:13:32;97576.13;;;6.15
6550;BMP280;15142;48.888;9.134;2022-11-20T07:16:00;97584.00;;;6.19
6550;BMP280;15142;48.888;9.134;2022-11-20T07:18:28;97588.03;;;6.20
6550;BMP280;15142;48.888;9.134;2022-11-20T07:20:55;97589.31;;;6.22
6550;BMP280;15142;48.888;9.134;2022-11-20T07:23:22;97591.06;;;6.27
6550;BMP280;15142;48.888;9.134;2022-11-20T07:25:48;97588.03;;;6.30
6550;BMP280;15142;48.888;9.134;2022-11-20T07:28:15;97592.63;;;6.33
6550;BMP280;15142;48.888;9.134;2022-11-20T07:30:41;97598.16;;;6.40
6550;BMP280;15142;48.888;9.134;2022-11-20T07:33:08;97601.72;;;6.43
6550;BMP280;15142;48.888;9.134;2022-11-20T07:35:36;97599.19;;;6.43
6550;BMP280;15142;48.888;9.134;2022-11-20T07:38:02;97599.19;;;6.43
6550;BMP280;15142;48.888;9.134;2022-11-20T07:40:29;97601.50;;;6.45
6550;BMP280;15142;48.888;9.134;2022-11-20T07:42:55;97603.75;;;6.51
6550;BMP280;15142;48.888;9.134;2022-11-20T07:45:23;97598.19;;;6.49
6550;BMP280;15142;48.888;9.134;2022-11-20T07:47:50;97601.25;;;6.46
6550;BMP280;15142;48.888;9.134;2022-11-20T07:50:18;97607.59;;;6.49
6550;BMP280;15142;48.888;9.134;2022-11-20T07:52:47;97605.28;;;6.52
6550;BMP280;15142;48.888;9.134;2022-11-20T07:55:14;97604.78;;;6.55
6550;BMP280;15142;48.888;9.134;2022-11-20T07:57:41;97607.06;;;6.57
6550;BMP280;15142;48.888;9.134;2022-11-20T08:00:09;97602.22;;;6.65
6550;BMP280;15142;48.888;9.134;2022-11-20T08:02:39;97609.88;;;6.70
6550;BMP280;15142;48.888;9.134;2022-11-20T08:05:07;97603.00;;;6.75
6550;BMP280;15142;48.888;9.134;2022-11-20T08:07:37;97602.25;;;6.75
6550;BMP280;15142;48.888;9.134;2022-11-20T08:10:06;97605.78;;;6.84
6550;BMP280;15142;48.888;9.134;2022-11-20T08:12:33;97604.75;;;6.95
6550;BMP280;15142;48.888;9.134;2022-11-20T08:15:18;97605.22;;;7.11
6550;BMP280;15142;48.888;9.134;2022-11-20T08:17:44;97607.75;;;7.21
6550;BMP280;15142;48.888;9.134;2022-11-20T08:20:11;97612.50;;;7.38
6550;BMP280;15142;48.888;9.134;2022-11-20T08:22:38;97615.28;;;7.46
6550;BMP280;15142;48.888;9.134;2022-11-20T08:25:06;97604.59;;;7.49
6550;BMP280;15142;48.888;9.134;2022-11-20T08:27:33;97614.47;;;7.55
6550;BMP280;15142;48.888;9.134;2022-11-20T08:30:00;97610.63;;;7.58
6550;BMP280;15142;48.888;9.134;2022-11-20T08:32:26;97612.41;;;7.57
6550;BMP280;15142;48.888;9.134;2022-11-20T08:34:53;97618.25;;;7.58
6550;BMP280;15142;48.888;9.134;2022-11-20T08:37:19;97618.75;;;7.60
6550;BMP280;15142;48.888;9.134;2022-11-20T08:39:46;97618.06;;;7.54
6550;BMP280;15142;48.888;9.134;2022-11-20T08:42:14;97626.44;;;7.50
6550;BMP280;15142;48.888;9.134;2022-11-20T08:44:40;97611.72;;;7.52
6550;BMP280;15142;48.888;9.134;2022-11-20T08:47:08;97623.38;;;7.53
6550;BMP280;15142;48.888;9.134;2022-11-20T08:49:34;97621.59;;;7.53
6550;BMP280;15142;48.888;9.134;2022-11-20T08:52:01;97624.91;;;7.49
6550;BMP280;15142;48.888;9.134;2022-11-20T08:54:28;97620.84;;;7.53
6550;BMP280;15142;48.888;9.134;2022-11-20T08:56:54;97625.91;;;7.53
6550;BMP280;15142;48.888;9.134;2022-11-20T08:59:22;97637.31;;;7.60
6550;BMP280;15142;48.888;9.134;2022-11-20T09:01:49;97637.00;;;7.67
6550;BMP280;15142;48.888;9.134;2022-11-20T09:04:15;97638.03;;;7.70
6550;BMP280;15142;48.888;9.134;2022-11-20T09:06:42;97638.78;;;7.71
6550;BMP280;15142;48.888;9.134;2022-11-20T09:09:08;97629.69;;;7.65
6550;BMP280;15142;48.888;9.134;2022-11-20T09:11:35;97636.53;;;7.60
6550;BMP280;15142;48.888;9.134;2022-11-20T09:14:02;97635.81;;;7.54
6550;BMP280;15142;48.888;9.134;2022-11-20T09:16:31;97641.09;;;7.58
6550;BMP280;15142;48.888;9.134;2022-11-20T09:18:57;97636.59;;;7.55
6550;BMP280;15142;48.888;9.134;2022-11-20T09:21:24;97642.41;;;7.55
6550;BMP280;15142;48.888;9.134;2022-11-20T09:23:50;97641.09;;;7.58
6550;BMP280;15142;48.888;9.134;2022-11-20T09:26:17;97649.72;;;7.62
6550;BMP280;15142;48.888;9.134;2022-11-20T09:28:44;97653.56;;;7.59
6550;BMP280;15142;48.888;9.134;2022-11-20T09:31:19;97650.25;;;7.59
6550;BMP280;15142;48.888;9.134;2022-11-20T09:33:48;97651.28;;;7.63
6550;BMP280;15142;48.888;9.134;2022-11-20T09:36:15;97653.06;;;7.62
6550;BMP280;15142;48.888;9.134;2022-11-20T09:38:43;97651.72;;;7.69
6550;BMP280;15142;48.888;9.134;2022-11-20T09:41:32;97650.72;;;7.70
6550;BMP280;15142;48.888;9.134;2022-11-20T09:44:07;97658.34;;;7.70
6550;BMP280;15142;48.888;9.134;2022-11-20T09:46:45;97655.03;;;7.75
6550;BMP280;15142;48.888;9.134;2022-11-20T09:49:23;97663.38;;;7.80
6550;BMP280;15142;48.888;9.134;2022-11-20T09:51:57;97665.41;;;7.78
6550;BMP280;15142;48.888;9.134;2022-11-20T09:54:28;97665.94;;;7.75
6550;BMP280;15142;48.888;9.134;2022-11-20T09:56:59;97667.47;;;7.71
6550;BMP280;15142;48.888;9.134;2022-11-20T09:59:33;97663.41;;;7.70
6550;BMP280;15142;48.888;9.134;2022-11-20T10:02:03;97669.50;;;7.69
6550;BMP280;15142;48.888;9.134;2022-11-20T10:04:36;97664.19;;;7.71
6550;BMP280;15142;48.888;9.134;2022-11-20T10:07:13;97668.25;;;7.72
6550;BMP280;15142;48.888;9.134;2022-11-20T10:09:48;97660.63;;;7.72
6550;BMP280;15142;48.888;9.134;2022-11-20T10:12:22;97667.25;;;7.68
6550;BMP280;15142;48.888;9.134;2022-11-20T10:15:00;97671.59;;;7.63
6550;BMP280;15142;48.888;9.134;2022-11-20T10:17:44;97672.06;;;7.60
6550;BMP280;15142;48.888;9.134;2022-11-20T10:20:22;97677.44;;;7.53
6550;BMP280;15142;48.888;9.134;2022-11-20T10:26:01;97677.69;;;7.57
6550;BMP280;15142;48.888;9.134;2022-11-20T10:28:37;97680.50;;;7.55
6550;BMP280;15142;48.888;9.134;2022-11-20T10:31:09;97675.63;;;7.69
6550;BMP280;15142;48.888;9.134;2022-11-20T10:33:40;97678.41;;;7.67
6550;BMP280;15142;48.888;9.134;2022-11-20T10:36:14;97681.75;;;7.63
6550;BMP280;15142;48.888;9.134;2022-11-20T10:38:44;97678.44;;;7.57
6550;BMP280;15142;48.888;9.134;2022-11-20T10:41:20;97674.69;;;7.50
6550;BMP280;15142;48.888;9.134;2022-11-20T10:43:53;97681.78;;;7.48
6550;BMP280;15142;48.888;9.134;2022-11-20T10:46:22;97670.91;;;7.33
6550;BMP280;15142;48.888;9.134;2022-11-20T10:48:49;97669.63;;;7.25
6550;BMP280;15142;48.888;9.134;2022-11-20T10:51:25;97663.56;;;7.21
6550;BMP280;15142;48.888;9.134;2022-11-20T10:54:00;97665.84;;;7.23
6550;BMP280;15142;48.888;9.134;2022-11-20T10:56:34;97657.97;;;7.24
6550;BMP280;15142;48.888;9.134;2022-11-20T10:59:31;97666.59;;;7.28
6550;BMP280;15142;48.888;9.134;2022-11-20T11:02:01;97659.22;;;7.37
6550;BMP280;15142;48.888;9.134;2022-11-20T11:04:36;97666.06;;;7.41
6550;BMP280;15142;48.888;9.134;2022-11-20T11:07:09;97662.97;;;7.49
6550;BMP280;15142;48.888;9.134;2022-11-20T11:09:40;97659.44;;;7.55
6550;BMP280;15142;48.888;9.134;2022-11-20T11:12:08;97662.38;;;7.71
6550;BMP280;15142;48.888;9.134;2022-11-20T11:14:43;97649.47;;;7.68
6550;BMP280;15142;48.888;9.134;2022-11-20T11:17:20;97653.25;;;7.70
6550;BMP280;15142;48.888;9.134;2022-11-20T11:20:00;97645.06;;;7.83
6550;BMP280;15142;48.888;9.134;2022-11-20T11:22:29;97642.47;;;7.98
6550;BMP280;15142;48.888;9.134;2022-11-20T11:24:56;97632.22;;;8.13
6550;BMP280;15142;48.888;9.134;2022-11-20T11:27:22;97638.69;;;9.82
6550;BMP280;15142;48.888;9.134;2022-11-20T11:29:49;97635.00;;;10.56
6550;BMP280;15142;48.888;9.134;2022-11-20T11:32:18;97634.53;;;10.41
6550;BMP280;15142;48.888;9.134;2022-11-20T11:34:58;97638.69;;;10.95
6550;BMP280;15142;48.888;9.134;2022-11-20T11:37:34;97628.09;;;11.14
6550;BMP280;15142;48.888;9.134;2022-11-20T11:40:02;97614.81;;;10.28
6550;BMP280;15142;48.888;9.134;2022-11-20T11:42:30;97598.00;;;9.95
6550;BMP280;15142;48.888;9.134;2022-11-20T11:44:58;97603.47;;;9.25
6550;BMP280;15142;48.888;9.134;2022-11-20T11:47:32;97601.75;;;8.97
6550;BMP280;15142;48.888;9.134;2022-11-20T11:50:15;97602.03;;;8.95
6550;BMP280;15142;48.888;9.134;2022-11-20T11:52:47;97618.66;;;10.88
6550;BMP280;15142;48.888;9.134;2022-11-20T11:55:19;97605.94;;;11.37
6550;BMP280;15142;48.888;9.134;2022-11-20T11:57:53;97603.94;;;12.03
6550;BMP280;15142;48.888;9.134;2022-11-20T12:00:21;97597.84;;;11.78
6550;BMP280;15142;48.888;9.134;2022-11-20T12:02:56;97581.38;;;10.87
6550;BMP280;15142;48.888;9.134;2022-11-20T12:05:25;97570.22;;;9.94
6550;BMP280;15142;48.888;9.134;2022-11-20T12:07:57;97574.28;;;10.26
6550;BMP280;15142;48.888;9.134;2022-11-20T12:10:37;97575.94;;;9.68
6550;BMP280;15142;48.888;9.134;2022-11-20T12:13:18;97582.00;;;9.90
6550;BMP280;15142;48.888;9.134;2022-11-20T12:15:47;97596.78;;;10.96
6550;BMP280;15142;48.888;9.134;2022-11-20T12:18:16;97593.69;;;11.60
6550;BMP280;15142;48.888;9.134;2022-11-20T12:20:48;97585.50;;;11.93
6550;BMP280;15142;48.888;9.134;2022-11-20T12:23:25;97588.88;;;12.54
6550;BMP280;15142;48.888;9.134;2022-11-20T12:25:56;97583.81;;;12.62
6550;BMP280;15142;48.888;9.134;2022-11-20T12:28:44;97583.31;;;12.98
6550;BMP280;15142;48.888;9.134;2022-11-20T12:31:30;97560.66;;;12.84
6550;BMP280;15142;48.888;9.134;2022-11-20T12:34:22;97561.19;;;12.64
6550;BMP280;15142;48.888;9.134;2022-11-20T12:36:56;97560.88;;;13.04
6550;BMP280;15142;48.888;9.134;2022-11-20T12:39:34;97556.13;;;12.72
6550;BMP280;15142;48.888;9.134;2022-11-20T12:42:22;97557.25;;;11.98
6550;BMP280;15142;48.888;9.134;2022-11-20T12:45:18;97551.03;;;12.12
6550;BMP280;15142;48.888;9.134;2022-11-20T12:48:08;97553.59;;;12.12
6550;BMP280;15142;48.888;9.134;2022-11-20T12:50:48;97549.75;;;12.23
6550;BMP280;15142;48.888;9.134;2022-11-20T12:53:25;97557.38;;;11.71
6550;BMP280;15142;48.888;9.134;2022-11-20T12:55:58;97560.34;;;12.08
6550;BMP280;15142;48.888;9.134;2022-11-20T12:58:33;97555.22;;;11.87
6550;BMP280;15142;48.888;9.134;2022-11-20T13:01:10;97562.38;;;11.41
6550;BMP280;15142;48.888;9.134;2022-11-20T13:04:12;97559.47;;;10.86
6550;BMP280;15142;48.888;9.134;2022-11-20T13:06:43;97556.19;;;11.21
6550;BMP280;15142;48.888;9.134;2022-11-20T13:09:13;97543.00;;;10.21
6550;BMP280;15142;48.888;9.134;2022-11-20T13:11:45;97548.47;;;9.47
6550;BMP280;15142;48.888;9.134;2022-11-20T13:14:24;97547.72;;;9.46
6550;BMP280;15142;48.888;9.134;2022-11-20T13:16:58;97550.78;;;10.29
6550;BMP280;15142;48.888;9.134;2022-11-20T13:19:25;97559.25;;;10.96
6550;BMP280;15142;48.888;9.134;2022-11-20T13:21:53;97546.00;;;10.94
6550;BMP280;15142;48.888;9.134;2022-11-20T13:24:25;97541.84;;;10.45
6550;BMP280;15142;48.888;9.134;2022-11-20T13:27:17;97535.19;;;10.18
6550;BMP280;15142;48.888;9.134;2022-11-20T13:29:46;97525.53;;;9.83
6550;BMP280;15142;48.888;9.134;2022-11-20T13:32:15;97523.88;;;9.56
6550;BMP280;15142;48.888;9.134;2022-11-20T13:34:51;97526.94;;;9.57
6550;BMP280;15142;48.888;9.134;2022-11-20T13:37:25;97519.69;;;9.64
6550;BMP280;15142;48.888;9.134;2022-11-20T13:39:52;97527.66;;;9.76
6550;BMP280;15142;48.888;9.134;2022-11-20T13:42:27;97516.97;;;9.74
6550;BMP280;15142;48.888;9.134;2022-11-20T13:44:55;97513.38;;;9.44
6550;BMP280;15142;48.888;9.134;2022-11-20T13:47:27;97521.63;;;9.36
6550;BMP280;15142;48.888;9.134;2022-11-20T13:49:55;97522.03;;;9.43
6550;BMP280;15142;48.888;9.134;2022-11-20T13:52:34;97524.00;;;9.64
6550;BMP280;15142;48.888;9.134;2022-11-20T13:55:12;97516.31;;;9.69
6550;BMP280;15142;48.888;9.134;2022-11-20T13:57:57;97518.16;;;9.63
6550;BMP280;15142;48.888;9.134;2022-11-20T14:00:26;97517.44;;;9.45
6550;BMP280;15142;48.888;9.134;2022-11-20T14:03:01;97505.38;;;9.32
6550;BMP280;15142;48.888;9.134;2022-11-20T14:05:29;97522.09;;;9.20
6550;BMP280;15142;48.888;9.134;2022-11-20T14:07:57;97506.72;;;9.06
6550;BMP280;15142;48.888;9.134;2022-11-20T14:10:26;97512.78;;;8.87
6550;BMP280;15142;48.888;9.134;2022-11-20T14:12:54;97520.75;;;8.81
6550;BMP280;15142;48.888;9.134;2022-11-20T14:15:26;97506.81;;;8.78
6550;BMP280;15142;48.888;9.134;2022-11-20T14:17:53;97509.69;;;8.67
6550;BMP280;15142;48.888;9.134;2022-11-20T14:20:24;97515.47;;;8.54
6550;BMP280;15142;48.888;9.134;2022-11-20T14:22:52;97508.09;;;8.53
6550;BMP280;15142;48.888;9.134;2022-11-20T14:25:20;97510.88;;;8.51
6550;BMP280;15142;48.888;9.134;2022-11-20T14:27:51;97518.03;;;8.49
6550;BMP280;15142;48.888;9.134;2022-11-20T14:30:22;97510.22;;;8.46
6550;BMP280;15142;48.888;9.134;2022-11-20T14:32:49;97513.97;;;8.48
6550;BMP280;15142;48.888;9.134;2022-11-20T14:35:21;97518.09;;;8.44
6550;BMP280;15142;48.888;9.134;2022-11-20T14:37:49;97505.22;;;8.36
6550;BMP280;15142;48.888;9.134;2022-11-20T14:40:26;97508.53;;;8.36
6550;BMP280;15142;48.888;9.134;2022-11-20T14:42:53;97504.00;;;8.29
6550;BMP280;15142;48.888;9.134;2022-11-20T14:45:22;97500.97;;;8.27
6550;BMP280;15142;48.888;9.134;2022-11-20T14:47:51;97506.91;;;8.17
6550;BMP280;15142;48.888;9.134;2022-11-20T14:50:22;97497.78;;;8.16
6550;BMP280;15142;48.888;9.134;2022-11-20T14:52:53;97484.88;;;8.08